sensor_id;sensor_type;location;lat;lon;timestamp;P1;durP1;ratioP1;P2;durP2;ratioP2
78131;SDS011;67381;47.672;9.380;2024-01-25T00:01:43;1.13;;;0.52;;
78131;SDS011;67381;47.672;9.380;2024-01-25T00:04:10;2.00;;;0.70;;
78131;SDS011;67381;47.672;9.380;2024-01-25T00:06:37;2.88;;;0.80;;
78131;SDS011;67381;47.672;9.380;2024-01-25T00:09:05;1.50;;;0.50;;
78131;SDS011;67381;47.672;9.380;2024-01-25T00:11:33;2.35;;;0.60;;
78131;SDS011;67381;47.672;9.380;2024-01-25T00:14:00;3.72;;;0.68;;
78131;SDS011;67381;47.672;9.380;2024-01-25T00:16:27;1.65;;;0.52;;
78131;SDS011;67381;47.672;9.380;2024-01-25T00:18:54;4.00;;;0.70;;
78131;SDS011;67381;47.672;9.380;2024-01-25T00:21:21;1.23;;;0.52;;
78131;SDS011;67381;47.672;9.380;2024-01-25T00:23:49;2.83;;;0.52;;
78131;SDS011;67381;47.672;9.380;2024-01-25T00:26:16;4.63;;;1.73;;
78131;SDS011;67381;47.672;9.380;2024-01-25T00:28:43;2.13;;;0.65;;
78131;SDS011;67381;47.672;9.380;2024-01-25T00:31:10;1.58;;;0.60;;
78131;SDS011;67381;47.672;9.380;2024-01-25T00:33:37;2.40;;;0.60;;
78131;SDS011;67381;47.672;9.380;2024-01-25T00:36:04;1.33;;;0.47;;
78131;SDS011;67381;47.672;9.380;2024-01-25T00:38:32;6.13;;;0.60;;
78131;SDS011;67381;47.672;9.380;2024-01-25T00:40:59;3.70;;;0.60;;
78131;SDS011;67381;47.672;9.380;2024-01-25T00:43:26;3.78;;;0.82;;
78131;SDS011;67381;47.672;9.380;2024-01-25T00:45:53;1.90;;;0.90;;
78131;SDS011;67381;47.672;9.380;2024-01-25T00:48:20;3.65;;;1.23;;
78131;SDS011;67381;47.672;9.380;2024-01-25T00:50:48;1.90;;;0.65;;
78131;SDS011;67381;47.672;9.380;2024-01-25T00:53:15;1.98;;;0.65;;
78131;SDS011;67381;47.672;9.380;2024-01-25T00:55:42;1.40;;;0.57;;
78131;SDS011;67381;47.672;9.380;2024-01-25T00:58:09;3.33;;;0.73;;
78131;SDS011;67381;47.672;9.380;2024-01-25T01:00:37;4.72;;;1.10;;
78131;SDS011;67381;47.672;9.380;2024-01-25T01:03:04;1.63;;;0.80;;
78131;SDS011;67381;47.672;9.380;2024-01-25T01:05:32;1.92;;;0.82;;
78131;SDS011;67381;47.672;9.380;2024-01-25T01:07:59;2.53;;;0.75;;
78131;SDS011;67381;47.672;9.380;2024-01-25T01:10:26;3.80;;;1.08;;
78131;SDS011;67381;47.672;9.380;2024-01-25T01:12:53;3.38;;;1.25;;
78131;SDS011;67381;47.672;9.380;2024-01-25T01:15:21;2.22;;;0.80;;
78131;SDS011;67381;47.672;9.380;2024-01-25T01:17:48;2.83;;;0.68;;
78131;SDS011;67381;47.672;9.380;2024-01-25T01:20:15;5.40;;;0.85;;
78131;SDS011;67381;47.672;9.380;2024-01-25T01:22:42;2.47;;;0.82;;
78131;SDS011;67381;47.672;9.380;2024-01-25T01:25:09;1.55;;;0.57;;
78131;SDS011;67381;47.672;9.380;2024-01-25T01:27:37;2.13;;;0.70;;
78131;SDS011;67381;47.672;9.380;2024-01-25T01:30:04;2.70;;;0.80;;
78131;SDS011;67381;47.672;9.380;2024-01-25T01:32:31;3.85;;;0.60;;
78131;SDS011;67381;47.672;9.380;2024-01-25T01:34:58;2.17;;;1.15;;
78131;SDS011;67381;47.672;9.380;2024-01-25T01:37:25;3.88;;;0.90;;
78131;SDS011;67381;47.672;9.380;2024-01-25T01:39:53;6.95;;;0.90;;
78131;SDS011;67381;47.672;9.380;2024-01-25T01:42:22;4.93;;;0.85;;
78131;SDS011;67381;47.672;9.380;2024-01-25T01:44:52;2.88;;;0.75;;
78131;SDS011;67381;47.672;9.380;2024-01-25T01:47:19;4.13;;;1.20;;
78131;SDS011;67381;47.672;9.380;2024-01-25T01:49:46;3.97;;;0.82;;
78131;SDS011;67381;47.672;9.380;2024-01-25T01:52:14;5.25;;;0.98;;
78131;SDS011;67381;47.672;9.380;2024-01-25T01:54:41;5.72;;;1.20;;
78131;SDS011;67381;47.672;9.380;2024-01-25T01:57:09;2.38;;;1.00;;
78131;SDS011;67381;47.672;9.380;2024-01-25T01:59:36;2.13;;;0.90;;
78131;SDS011;67381;47.672;9.380;2024-01-25T02:02:03;7.55;;;1.10;;
78131;SDS011;67381;47.672;9.380;2024-01-25T02:04:30;5.85;;;1.17;;
78131;SDS011;67381;47.672;9.380;2024-01-25T02:06:57;2.67;;;1.00;;
78131;SDS011;67381;47.672;9.380;2024-01-25T02:09:24;4.43;;;0.93;;
78131;SDS011;67381;47.672;9.380;2024-01-25T02:12:01;6.13;;;1.27;;
78131;SDS011;67381;47.672;9.380;2024-01-25T02:14:30;1.77;;;0.93;;
78131;SDS011;67381;47.672;9.380;2024-01-25T02:16:57;3.58;;;1.73;;
78131;SDS011;67381;47.672;9.380;2024-01-25T02:19:24;5.18;;;1.63;;
78131;SDS011;67381;47.672;9.380;2024-01-25T02:21:51;4.28;;;1.25;;
78131;SDS011;67381;47.672;9.380;2024-01-25T02:24:20;6.03;;;1.45;;
78131;SDS011;67381;47.672;9.380;2024-01-25T02:26:47;3.35;;;1.35;;
78131;SDS011;67381;47.672;9.380;2024-01-25T02:29:14;4.53;;;1.23;;
78131;SDS011;67381;47.672;9.380;2024-01-25T02:31:41;5.78;;;1.10;;
78131;SDS011;67381;47.672;9.380;2024-01-25T02:34:08;4.35;;;0.90;;
78131;SDS011;67381;47.672;9.380;2024-01-25T02:36:35;6.63;;;2.05;;
78131;SDS011;67381;47.672;9.380;2024-01-25T02:39:02;3.00;;;0.95;;
78131;SDS011;67381;47.672;9.380;2024-01-25T02:41:31;4.15;;;1.63;;
78131;SDS011;67381;47.672;9.380;2024-01-25T02:43:59;9.90;;;1.50;;
78131;SDS011;67381;47.672;9.380;2024-01-25T02:46:26;2.72;;;1.30;;
78131;SDS011;67381;47.672;9.380;2024-01-25T02:48:53;4.00;;;1.08;;
78131;SDS011;67381;47.672;9.380;2024-01-25T02:51:21;11.10;;;1.08;;
78131;SDS011;67381;47.672;9.380;2024-01-25T02:53:49;4.03;;;1.13;;
78131;SDS011;67381;47.672;9.380;2024-01-25T02:56:16;3.35;;;1.50;;
78131;SDS011;67381;47.672;9.380;2024-01-25T02:58:43;3.97;;;1.13;;
78131;SDS011;67381;47.672;9.380;2024-01-25T03:01:10;5.03;;;1.05;;
78131;SDS011;67381;47.672;9.380;2024-01-25T03:03:37;4.50;;;1.13;;
78131;SDS011;67381;47.672;9.380;2024-01-25T03:06:05;2.25;;;0.90;;
78131;SDS011;67381;47.672;9.380;2024-01-25T03:08:33;4.13;;;0.75;;
78131;SDS011;67381;47.672;9.380;2024-01-25T03:11:00;6.47;;;1.00;;
78131;SDS011;67381;47.672;9.380;2024-01-25T03:13:27;2.53;;;1.02;;
78131;SDS011;67381;47.672;9.380;2024-01-25T03:15:54;6.88;;;1.05;;
78131;SDS011;67381;47.672;9.380;2024-01-25T03:18:21;4.18;;;1.10;;
78131;SDS011;67381;47.672;9.380;2024-01-25T03:20:48;3.33;;;1.17;;
78131;SDS011;67381;47.672;9.380;2024-01-25T03:23:17;4.88;;;1.20;;
78131;SDS011;67381;47.672;9.380;2024-01-25T03:25:44;6.18;;;1.50;;
78131;SDS011;67381;47.672;9.380;2024-01-25T03:28:11;6.30;;;1.20;;
78131;SDS011;67381;47.672;9.380;2024-01-25T03:30:40;4.40;;;1.08;;
78131;SDS011;67381;47.672;9.380;2024-01-25T03:33:07;4.13;;;1.40;;
78131;SDS011;67381;47.672;9.380;2024-01-25T03:35:35;6.30;;;2.30;;
78131;SDS011;67381;47.672;9.380;2024-01-25T03:38:02;3.88;;;1.33;;
78131;SDS011;67381;47.672;9.380;2024-01-25T03:40:29;3.17;;;1.27;;
78131;SDS011;67381;47.672;9.380;2024-01-25T03:42:56;6.65;;;1.25;;
78131;SDS011;67381;47.672;9.380;2024-01-25T03:45:24;5.97;;;1.42;;
78131;SDS011;67381;47.672;9.380;2024-01-25T03:47:51;6.38;;;1.63;;
78131;SDS011;67381;47.672;9.380;2024-01-25T03:50:18;3.45;;;1.17;;
78131;SDS011;67381;47.672;9.380;2024-01-25T03:52:45;7.78;;;1.30;;
78131;SDS011;67381;47.672;9.380;2024-01-25T03:55:12;4.25;;;1.27;;
78131;SDS011;67381;47.672;9.380;2024-01-25T03:57:39;5.43;;;1.10;;
78131;SDS011;67381;47.672;9.380;2024-01-25T04:00:07;5.35;;;1.38;;
78131;SDS011;67381;47.672;9.380;2024-01-25T04:02:35;5.40;;;1.10;;
78131;SDS011;67381;47.672;9.380;2024-01-25T04:05:02;4.97;;;1.02;;
78131;SDS011;67381;47.672;9.380;2024-01-25T04:07:29;2.15;;;0.93;;
78131;SDS011;67381;47.672;9.380;2024-01-25T04:09:56;2.88;;;1.10;;
78131;SDS011;67381;47.672;9.380;2024-01-25T04:12:23;5.05;;;1.60;;
78131;SDS011;67381;47.672;9.380;2024-01-25T04:14:51;3.53;;;1.40;;
78131;SDS011;67381;47.672;9.380;2024-01-25T04:17:18;5.25;;;1.20;;
78131;SDS011;67381;47.672;9.380;2024-01-25T04:19:46;3.00;;;0.82;;
78131;SDS011;67381;47.672;9.380;2024-01-25T04:22:13;4.28;;;1.10;;
78131;SDS011;67381;47.672;9.380;2024-01-25T04:24:40;2.72;;;1.20;;
78131;SDS011;67381;47.672;9.380;2024-01-25T04:27:07;5.88;;;1.27;;
78131;SDS011;67381;47.672;9.380;2024-01-25T04:29:34;3.03;;;0.80;;
78131;SDS011;67381;47.672;9.380;2024-01-25T04:32:01;3.90;;;1.15;;
78131;SDS011;67381;47.672;9.380;2024-01-25T04:34:28;3.63;;;1.05;;
78131;SDS011;67381;47.672;9.380;2024-01-25T04:36:55;2.08;;;0.95;;
78131;SDS011;67381;47.672;9.380;2024-01-25T04:39:22;5.18;;;1.05;;
78131;SDS011;67381;47.672;9.380;2024-01-25T04:41:49;1.95;;;0.80;;
78131;SDS011;67381;47.672;9.380;2024-01-25T04:44:16;4.78;;;1.13;;
78131;SDS011;67381;47.672;9.380;2024-01-25T04:46:43;3.75;;;1.27;;
78131;SDS011;67381;47.672;9.380;2024-01-25T04:49:10;5.00;;;1.00;;
78131;SDS011;67381;47.672;9.380;2024-01-25T04:51:38;2.97;;;0.90;;
78131;SDS011;67381;47.672;9.380;2024-01-25T04:54:05;4.13;;;1.02;;
78131;SDS011;67381;47.672;9.380;2024-01-25T04:56:34;5.05;;;0.90;;
78131;SDS011;67381;47.672;9.380;2024-01-25T04:59:01;4.90;;;0.82;;
78131;SDS011;67381;47.672;9.380;2024-01-25T05:01:28;3.33;;;0.85;;
78131;SDS011;67381;47.672;9.380;2024-01-25T05:03:55;4.22;;;1.00;;
78131;SDS011;67381;47.672;9.380;2024-01-25T05:06:22;1.52;;;0.75;;
78131;SDS011;67381;47.672;9.380;2024-01-25T05:08:49;2.83;;;1.00;;
78131;SDS011;67381;47.672;9.380;2024-01-25T05:11:16;3.28;;;0.98;;
78131;SDS011;67381;47.672;9.380;2024-01-25T05:13:43;1.75;;;0.77;;
78131;SDS011;67381;47.672;9.380;2024-01-25T05:16:10;4.22;;;0.90;;
78131;SDS011;67381;47.672;9.380;2024-01-25T05:18:38;2.70;;;0.98;;
78131;SDS011;67381;47.672;9.380;2024-01-25T05:21:05;2.65;;;1.00;;
78131;SDS011;67381;47.672;9.380;2024-01-25T05:23:32;1.88;;;0.70;;
78131;SDS011;67381;47.672;9.380;2024-01-25T05:25:59;3.13;;;0.80;;
78131;SDS011;67381;47.672;9.380;2024-01-25T05:28:26;3.20;;;0.88;;
78131;SDS011;67381;47.672;9.380;2024-01-25T05:30:53;2.13;;;1.05;;
78131;SDS011;67381;47.672;9.380;2024-01-25T05:33:20;5.78;;;1.88;;
78131;SDS011;67381;47.672;9.380;2024-01-25T05:35:47;2.80;;;1.38;;
78131;SDS011;67381;47.672;9.380;2024-01-25T05:38:14;4.82;;;1.60;;
78131;SDS011;67381;47.672;9.380;2024-01-25T05:40:41;4.57;;;2.13;;
78131;SDS011;67381;47.672;9.380;2024-01-25T05:43:08;5.13;;;2.63;;
78131;SDS011;67381;47.672;9.380;2024-01-25T05:45:35;6.82;;;2.20;;
78131;SDS011;67381;47.672;9.380;2024-01-25T05:48:02;7.70;;;2.67;;
78131;SDS011;67381;47.672;9.380;2024-01-25T05:50:29;7.38;;;2.97;;
78131;SDS011;67381;47.672;9.380;2024-01-25T05:52:56;10.27;;;3.47;;
78131;SDS011;67381;47.672;9.380;2024-01-25T05:55:23;5.85;;;3.22;;
78131;SDS011;67381;47.672;9.380;2024-01-25T05:57:50;6.82;;;2.75;;
78131;SDS011;67381;47.672;9.380;2024-01-25T06:00:18;8.30;;;2.97;;
78131;SDS011;67381;47.672;9.380;2024-01-25T06:02:47;8.55;;;3.70;;
78131;SDS011;67381;47.672;9.380;2024-01-25T06:05:14;7.55;;;2.78;;
78131;SDS011;67381;47.672;9.380;2024-01-25T06:07:41;6.18;;;2.47;;
78131;SDS011;67381;47.672;9.380;2024-01-25T06:10:08;6.75;;;2.63;;
78131;SDS011;67381;47.672;9.380;2024-01-25T06:12:35;7.50;;;2.60;;
78131;SDS011;67381;47.672;9.380;2024-01-25T06:15:03;4.50;;;2.30;;
78131;SDS011;67381;47.672;9.380;2024-01-25T06:17:30;4.97;;;1.92;;
78131;SDS011;67381;47.672;9.380;2024-01-25T06:19:57;4.45;;;1.70;;
78131;SDS011;67381;47.672;9.380;2024-01-25T06:22:24;3.78;;;1.88;;
78131;SDS011;67381;47.672;9.380;2024-01-25T06:24:52;5.60;;;1.60;;
78131;SDS011;67381;47.672;9.380;2024-01-25T06:27:19;3.75;;;1.33;;
78131;SDS011;67381;47.672;9.380;2024-01-25T06:29:46;4.78;;;1.30;;
78131;SDS011;67381;47.672;9.380;2024-01-25T06:32:13;4.45;;;1.55;;
78131;SDS011;67381;47.672;9.380;2024-01-25T06:34:42;7.45;;;1.23;;
78131;SDS011;67381;47.672;9.380;2024-01-25T06:37:09;3.30;;;0.90;;
78131;SDS011;67381;47.672;9.380;2024-01-25T06:39:39;5.93;;;1.48;;
78131;SDS011;67381;47.672;9.380;2024-01-25T06:42:06;2.40;;;0.98;;
78131;SDS011;67381;47.672;9.380;2024-01-25T06:44:33;4.18;;;1.02;;
78131;SDS011;67381;47.672;9.380;2024-01-25T06:47:00;5.43;;;1.65;;
78131;SDS011;67381;47.672;9.380;2024-01-25T06:49:27;5.07;;;1.15;;
78131;SDS011;67381;47.672;9.380;2024-01-25T06:51:54;3.55;;;1.60;;
78131;SDS011;67381;47.672;9.380;2024-01-25T06:54:21;2.83;;;0.82;;
78131;SDS011;67381;47.672;9.380;2024-01-25T06:56:49;5.82;;;1.25;;
78131;SDS011;67381;47.672;9.380;2024-01-25T06:59:18;4.57;;;1.15;;
78131;SDS011;67381;47.672;9.380;2024-01-25T07:01:45;3.38;;;1.08;;
78131;SDS011;67381;47.672;9.380;2024-01-25T07:04:12;1.70;;;1.02;;
78131;SDS011;67381;47.672;9.380;2024-01-25T07:06:39;4.25;;;1.60;;
78131;SDS011;67381;47.672;9.380;2024-01-25T07:09:06;12.25;;;4.32;;
78131;SDS011;67381;47.672;9.380;2024-01-25T07:11:33;8.23;;;3.50;;
78131;SDS011;67381;47.672;9.380;2024-01-25T07:14:00;5.72;;;2.78;;
78131;SDS011;67381;47.672;9.380;2024-01-25T07:16:27;7.20;;;2.83;;
78131;SDS011;67381;47.672;9.380;2024-01-25T07:18:54;25.08;;;12.15;;
78131;SDS011;67381;47.672;9.380;2024-01-25T07:21:21;34.72;;;17.17;;
78131;SDS011;67381;47.672;9.380;2024-01-25T07:23:48;22.98;;;11.25;;
78131;SDS011;67381;47.672;9.380;2024-01-25T07:26:16;5.97;;;3.17;;
78131;SDS011;67381;47.672;9.380;2024-01-25T07:28:43;13.50;;;4.60;;
78131;SDS011;67381;47.672;9.380;2024-01-25T07:31:10;8.70;;;4.20;;
78131;SDS011;67381;47.672;9.380;2024-01-25T07:33:37;6.65;;;3.10;;
78131;SDS011;67381;47.672;9.380;2024-01-25T07:36:05;7.90;;;1.85;;
78131;SDS011;67381;47.672;9.380;2024-01-25T07:38:32;8.90;;;1.55;;
78131;SDS011;67381;47.672;9.380;2024-01-25T07:40:59;6.47;;;1.35;;
78131;SDS011;67381;47.672;9.380;2024-01-25T07:43:26;3.67;;;1.25;;
78131;SDS011;67381;47.672;9.380;2024-01-25T07:45:53;5.88;;;1.50;;
78131;SDS011;67381;47.672;9.380;2024-01-25T07:48:20;4.07;;;1.42;;
78131;SDS011;67381;47.672;9.380;2024-01-25T07:50:47;7.88;;;2.20;;
78131;SDS011;67381;47.672;9.380;2024-01-25T07:53:14;6.32;;;2.13;;
78131;SDS011;67381;47.672;9.380;2024-01-25T07:55:43;10.60;;;2.85;;
78131;SDS011;67381;47.672;9.380;2024-01-25T07:58:10;12.98;;;2.95;;
78131;SDS011;67381;47.672;9.380;2024-01-25T08:00:37;8.07;;;2.67;;
78131;SDS011;67381;47.672;9.380;2024-01-25T08:03:04;8.02;;;2.70;;
78131;SDS011;67381;47.672;9.380;2024-01-25T08:05:32;7.40;;;2.78;;
78131;SDS011;67381;47.672;9.380;2024-01-25T08:07:59;10.07;;;2.83;;
78131;SDS011;67381;47.672;9.380;2024-01-25T08:10:27;4.45;;;2.30;;
78131;SDS011;67381;47.672;9.380;2024-01-25T08:12:54;6.43;;;2.70;;
78131;SDS011;67381;47.672;9.380;2024-01-25T08:15:21;5.53;;;2.42;;
78131;SDS011;67381;47.672;9.380;2024-01-25T08:17:48;6.82;;;2.38;;
78131;SDS011;67381;47.672;9.380;2024-01-25T08:20:15;7.90;;;2.65;;
78131;SDS011;67381;47.672;9.380;2024-01-25T08:22:42;5.80;;;2.67;;
78131;SDS011;67381;47.672;9.380;2024-01-25T08:25:09;7.03;;;3.17;;
78131;SDS011;67381;47.672;9.380;2024-01-25T08:27:38;5.35;;;2.67;;
78131;SDS011;67381;47.672;9.380;2024-01-25T08:30:05;7.82;;;3.13;;
78131;SDS011;67381;47.672;9.380;2024-01-25T08:32:32;8.75;;;3.75;;
78131;SDS011;67381;47.672;9.380;2024-01-25T08:34:59;6.82;;;3.53;;
78131;SDS011;67381;47.672;9.380;2024-01-25T08:37:26;8.50;;;3.15;;
78131;SDS011;67381;47.672;9.380;2024-01-25T08:39:53;7.28;;;3.08;;
78131;SDS011;67381;47.672;9.380;2024-01-25T08:42:20;7.55;;;2.95;;
78131;SDS011;67381;47.672;9.380;2024-01-25T08:44:48;7.22;;;3.35;;
78131;SDS011;67381;47.672;9.380;2024-01-25T08:47:18;6.30;;;2.58;;
78131;SDS011;67381;47.672;9.380;2024-01-25T08:49:45;6.00;;;2.45;;
78131;SDS011;67381;47.672;9.380;2024-01-25T08:52:13;4.57;;;2.45;;
78131;SDS011;67381;47.672;9.380;2024-01-25T08:54:40;6.13;;;2.30;;
78131;SDS011;67381;47.672;9.380;2024-01-25T08:57:09;5.97;;;2.85;;
78131;SDS011;67381;47.672;9.380;2024-01-25T08:59:36;6.60;;;2.67;;
78131;SDS011;67381;47.672;9.380;2024-01-25T09:02:04;6.70;;;2.67;;
78131;SDS011;67381;47.672;9.380;2024-01-25T09:04:33;6.72;;;3.00;;
78131;SDS011;67381;47.672;9.380;2024-01-25T09:07:00;5.47;;;2.13;;
78131;SDS011;67381;47.672;9.380;2024-01-25T09:09:27;6.78;;;2.17;;
78131;SDS011;67381;47.672;9.380;2024-01-25T09:11:54;7.63;;;2.50;;
78131;SDS011;67381;47.672;9.380;2024-01-25T09:14:21;6.88;;;2.58;;
78131;SDS011;67381;47.672;9.380;2024-01-25T09:16:48;4.55;;;2.17;;
78131;SDS011;67381;47.672;9.380;2024-01-25T09:19:15;5.68;;;2.47;;
78131;SDS011;67381;47.672;9.380;2024-01-25T09:21:43;4.95;;;2.50;;
78131;SDS011;67381;47.672;9.380;2024-01-25T09:24:10;6.68;;;2.75;;
78131;SDS011;67381;47.672;9.380;2024-01-25T09:26:37;9.90;;;3.92;;
78131;SDS011;67381;47.672;9.380;2024-01-25T09:29:04;7.18;;;3.50;;
78131;SDS011;67381;47.672;9.380;2024-01-25T09:31:31;6.20;;;2.92;;
78131;SDS011;67381;47.672;9.380;2024-01-25T09:33:58;4.63;;;2.50;;
78131;SDS011;67381;47.672;9.380;2024-01-25T09:36:25;6.82;;;3.20;;
78131;SDS011;67381;47.672;9.380;2024-01-25T09:38:53;10.23;;;3.20;;
78131;SDS011;67381;47.672;9.380;2024-01-25T09:41:20;6.10;;;3.42;;
78131;SDS011;67381;47.672;9.380;2024-01-25T09:43:47;5.70;;;2.45;;
78131;SDS011;67381;47.672;9.380;2024-01-25T09:46:14;6.28;;;3.67;;
78131;SDS011;67381;47.672;9.380;2024-01-25T09:48:42;5.43;;;2.85;;
78131;SDS011;67381;47.672;9.380;2024-01-25T09:51:13;6.32;;;2.55;;
78131;SDS011;67381;47.672;9.380;2024-01-25T09:53:40;5.85;;;2.28;;
78131;SDS011;67381;47.672;9.380;2024-01-25T09:56:10;5.20;;;2.17;;
78131;SDS011;67381;47.672;9.380;2024-01-25T09:58:42;3.95;;;1.60;;
78131;SDS011;67381;47.672;9.380;2024-01-25T10:01:10;5.20;;;2.40;;
78131;SDS011;67381;47.672;9.380;2024-01-25T10:03:43;3.30;;;1.45;;
78131;SDS011;67381;47.672;9.380;2024-01-25T10:06:11;5.00;;;1.50;;
78131;SDS011;67381;47.672;9.380;2024-01-25T10:08:38;4.55;;;1.52;;
78131;SDS011;67381;47.672;9.380;2024-01-25T10:11:05;4.35;;;1.63;;
78131;SDS011;67381;47.672;9.380;2024-01-25T10:13:32;4.45;;;1.30;;
78131;SDS011;67381;47.672;9.380;2024-01-25T10:16:00;4.03;;;1.15;;
78131;SDS011;67381;47.672;9.380;2024-01-25T10:18:27;4.50;;;0.82;;
78131;SDS011;67381;47.672;9.380;2024-01-25T10:20:54;2.55;;;0.98;;
78131;SDS011;67381;47.672;9.380;2024-01-25T10:23:22;6.10;;;2.03;;
78131;SDS011;67381;47.672;9.380;2024-01-25T10:25:49;3.90;;;1.45;;
78131;SDS011;67381;47.672;9.380;2024-01-25T10:28:16;4.82;;;1.02;;
78131;SDS011;67381;47.672;9.380;2024-01-25T10:30:44;5.32;;;1.13;;
78131;SDS011;67381;47.672;9.380;2024-01-25T10:33:11;4.00;;;1.02;;
78131;SDS011;67381;47.672;9.380;2024-01-25T10:35:38;3.97;;;1.00;;
78131;SDS011;67381;47.672;9.380;2024-01-25T10:38:08;2.45;;;1.13;;
78131;SDS011;67381;47.672;9.380;2024-01-25T10:40:35;2.72;;;0.95;;
78131;SDS011;67381;47.672;9.380;2024-01-25T10:43:02;3.10;;;1.30;;
78131;SDS011;67381;47.672;9.380;2024-01-25T10:45:29;2.22;;;1.30;;
78131;SDS011;67381;47.672;9.380;2024-01-25T10:47:56;2.90;;;0.88;;
78131;SDS011;67381;47.672;9.380;2024-01-25T10:50:24;3.25;;;0.68;;
78131;SDS011;67381;47.672;9.380;2024-01-25T10:52:52;4.55;;;1.08;;
78131;SDS011;67381;47.672;9.380;2024-01-25T10:55:20;7.03;;;1.65;;
78131;SDS011;67381;47.672;9.380;2024-01-25T10:57:47;2.97;;;1.35;;
78131;SDS011;67381;47.672;9.380;2024-01-25T11:00:15;5.07;;;1.33;;
78131;SDS011;67381;47.672;9.380;2024-01-25T11:02:42;4.72;;;1.25;;
78131;SDS011;67381;47.672;9.380;2024-01-25T11:05:14;4.78;;;1.52;;
78131;SDS011;67381;47.672;9.380;2024-01-25T11:07:45;4.43;;;1.60;;
78131;SDS011;67381;47.672;9.380;2024-01-25T11:10:16;3.17;;;1.60;;
78131;SDS011;67381;47.672;9.380;2024-01-25T11:12:57;6.38;;;1.40;;
78131;SDS011;67381;47.672;9.380;2024-01-25T11:15:31;6.28;;;1.50;;
78131;SDS011;67381;47.672;9.380;2024-01-25T11:17:58;3.63;;;1.20;;
78131;SDS011;67381;47.672;9.380;2024-01-25T11:20:27;2.95;;;0.93;;
78131;SDS011;67381;47.672;9.380;2024-01-25T11:22:58;3.67;;;1.10;;
78131;SDS011;67381;47.672;9.380;2024-01-25T11:27:53;3.67;;;1.10;;
78131;SDS011;67381;47.672;9.380;2024-01-25T11:30:20;2.13;;;0.93;;
78131;SDS011;67381;47.672;9.380;2024-01-25T11:32:48;2.78;;;0.88;;
78131;SDS011;67381;47.672;9.380;2024-01-25T11:35:15;1.73;;;0.75;;
78131;SDS011;67381;47.672;9.380;2024-01-25T11:37:47;2.33;;;0.52;;
78131;SDS011;67381;47.672;9.380;2024-01-25T11:40:14;3.08;;;1.20;;
78131;SDS011;67381;47.672;9.380;2024-01-25T11:42:42;4.72;;;1.48;;
78131;SDS011;67381;47.672;9.380;2024-01-25T11:45:10;3.25;;;1.05;;
78131;SDS011;67381;47.672;9.380;2024-01-25T11:47:38;3.95;;;1.13;;
78131;SDS011;67381;47.672;9.380;2024-01-25T11:50:05;3.03;;;1.00;;
78131;SDS011;67381;47.672;9.380;2024-01-25T11:52:33;4.88;;;1.80;;
78131;SDS011;67381;47.672;9.380;2024-01-25T11:55:01;3.13;;;1.25;;
78131;SDS011;67381;47.672;9.380;2024-01-25T11:57:31;3.13;;;1.23;;
78131;SDS011;67381;47.672;9.380;2024-01-25T11:59:59;3.45;;;1.23;;
78131;SDS011;67381;47.672;9.380;2024-01-25T12:02:26;5.22;;;1.42;;
78131;SDS011;67381;47.672;9.380;2024-01-25T12:04:55;6.35;;;1.17;;
78131;SDS011;67381;47.672;9.380;2024-01-25T12:07:23;2.40;;;0.70;;
78131;SDS011;67381;47.672;9.380;2024-01-25T12:09:56;3.65;;;1.00;;
78131;SDS011;67381;47.672;9.380;2024-01-25T12:12:24;2.92;;;1.20;;
78131;SDS011;67381;47.672;9.380;2024-01-25T12:14:51;1.52;;;0.65;;
78131;SDS011;67381;47.672;9.380;2024-01-25T12:17:19;2.65;;;1.15;;
78131;SDS011;67381;47.672;9.380;2024-01-25T12:19:46;3.22;;;0.82;;
78131;SDS011;67381;47.672;9.380;2024-01-25T12:22:19;3.20;;;1.08;;
78131;SDS011;67381;47.672;9.380;2024-01-25T12:24:46;2.25;;;1.13;;
78131;SDS011;67381;47.672;9.380;2024-01-25T12:27:16;4.13;;;0.90;;
78131;SDS011;67381;47.672;9.380;2024-01-25T12:29:43;6.68;;;1.23;;
78131;SDS011;67381;47.672;9.380;2024-01-25T12:32:10;2.20;;;0.80;;
78131;SDS011;67381;47.672;9.380;2024-01-25T12:34:37;5.45;;;1.55;;
78131;SDS011;67381;47.672;9.380;2024-01-25T12:37:06;2.45;;;0.82;;
78131;SDS011;67381;47.672;9.380;2024-01-25T12:39:33;2.45;;;0.93;;
78131;SDS011;67381;47.672;9.380;2024-01-25T12:42:00;4.03;;;1.05;;
78131;SDS011;67381;47.672;9.380;2024-01-25T12:44:27;1.63;;;0.57;;
78131;SDS011;67381;47.672;9.380;2024-01-25T12:46:54;14.07;;;5.15;;
78131;SDS011;67381;47.672;9.380;2024-01-25T12:49:21;2.50;;;0.93;;
78131;SDS011;67381;47.672;9.380;2024-01-25T12:51:49;2.30;;;0.98;;
78131;SDS011;67381;47.672;9.380;2024-01-25T12:54:20;2.95;;;0.88;;
78131;SDS011;67381;47.672;9.380;2024-01-25T12:56:47;2.80;;;0.70;;
78131;SDS011;67381;47.672;9.380;2024-01-25T12:59:14;3.17;;;1.10;;
78131;SDS011;67381;47.672;9.380;2024-01-25T13:01:41;2.40;;;0.73;;
78131;SDS011;67381;47.672;9.380;2024-01-25T13:04:08;1.40;;;0.63;;
78131;SDS011;67381;47.672;9.380;2024-01-25T13:06:36;1.80;;;0.82;;
78131;SDS011;67381;47.672;9.380;2024-01-25T13:09:03;4.40;;;0.82;;
78131;SDS011;67381;47.672;9.380;2024-01-25T13:11:30;3.15;;;1.10;;
78131;SDS011;67381;47.672;9.380;2024-01-25T13:13:57;2.15;;;0.95;;
78131;SDS011;67381;47.672;9.380;2024-01-25T13:16:24;3.63;;;0.93;;
78131;SDS011;67381;47.672;9.380;2024-01-25T13:18:51;2.92;;;0.82;;
78131;SDS011;67381;47.672;9.380;2024-01-25T13:21:18;1.50;;;0.73;;
78131;SDS011;67381;47.672;9.380;2024-01-25T13:23:45;1.90;;;1.13;;
78131;SDS011;67381;47.672;9.380;2024-01-25T13:26:12;1.98;;;0.90;;
78131;SDS011;67381;47.672;9.380;2024-01-25T13:28:39;2.72;;;1.23;;
78131;SDS011;67381;47.672;9.380;2024-01-25T13:31:06;2.05;;;0.85;;
78131;SDS011;67381;47.672;9.380;2024-01-25T13:33:33;2.67;;;0.73;;
78131;SDS011;67381;47.672;9.380;2024-01-25T13:36:00;3.17;;;1.27;;
78131;SDS011;67381;47.672;9.380;2024-01-25T13:38:27;2.58;;;1.02;;
78131;SDS011;67381;47.672;9.380;2024-01-25T13:40:54;3.45;;;1.08;;
78131;SDS011;67381;47.672;9.380;2024-01-25T13:43:22;2.70;;;0.98;;
78131;SDS011;67381;47.672;9.380;2024-01-25T13:45:49;1.88;;;0.82;;
78131;SDS011;67381;47.672;9.380;2024-01-25T13:48:16;2.08;;;0.95;;
78131;SDS011;67381;47.672;9.380;2024-01-25T13:50:45;2.75;;;0.80;;
78131;SDS011;67381;47.672;9.380;2024-01-25T13:53:12;1.50;;;0.70;;
78131;SDS011;67381;47.672;9.380;2024-01-25T13:55:39;2.83;;;0.80;;
78131;SDS011;67381;47.672;9.380;2024-01-25T13:58:07;1.85;;;1.30;;
78131;SDS011;67381;47.672;9.380;2024-01-25T14:00:34;2.60;;;1.00;;
78131;SDS011;67381;47.672;9.380;2024-01-25T14:03:01;1.50;;;0.82;;
78131;SDS011;67381;47.672;9.380;2024-01-25T14:05:28;1.88;;;0.60;;
78131;SDS011;67381;47.672;9.380;2024-01-25T14:07:55;2.33;;;1.00;;
78131;SDS011;67381;47.672;9.380;2024-01-25T14:10:22;2.20;;;1.05;;
78131;SDS011;67381;47.672;9.380;2024-01-25T14:12:49;3.95;;;1.00;;
78131;SDS011;67381;47.672;9.380;2024-01-25T14:15:18;2.55;;;1.10;;
78131;SDS011;67381;47.672;9.380;2024-01-25T14:17:45;4.28;;;1.20;;
78131;SDS011;67381;47.672;9.380;2024-01-25T14:20:12;5.03;;;1.00;;
78131;SDS011;67381;47.672;9.380;2024-01-25T14:22:39;2.60;;;1.13;;
78131;SDS011;67381;47.672;9.380;2024-01-25T14:25:07;2.85;;;0.90;;
78131;SDS011;67381;47.672;9.380;2024-01-25T14:27:34;2.00;;;1.08;;
78131;SDS011;67381;47.672;9.380;2024-01-25T14:30:01;3.28;;;0.95;;
78131;SDS011;67381;47.672;9.380;2024-01-25T14:32:30;2.60;;;0.82;;
78131;SDS011;67381;47.672;9.380;2024-01-25T14:34:57;2.17;;;0.93;;
78131;SDS011;67381;47.672;9.380;2024-01-25T14:37:24;4.65;;;1.13;;
78131;SDS011;67381;47.672;9.380;2024-01-25T14:39:51;3.00;;;1.50;;
78131;SDS011;67381;47.672;9.380;2024-01-25T14:42:21;2.78;;;1.35;;
78131;SDS011;67381;47.672;9.380;2024-01-25T14:44:48;4.72;;;1.38;;
78131;SDS011;67381;47.672;9.380;2024-01-25T14:47:15;3.30;;;1.42;;
78131;SDS011;67381;47.672;9.380;2024-01-25T14:49:47;2.72;;;1.35;;
78131;SDS011;67381;47.672;9.380;2024-01-25T14:52:14;2.47;;;1.10;;